Time;durP1;ratioP1;P1;durP2;ratioP2;P2;SDS_P1;SDS_P2;PMS_P1;PMS_P2;Temp;Humidity;BMP_temperature;BMP_pressure;BME280_temperature;BME280_humidity;BME280_pressure;Samples;Min_cycle;Max_cycle;Signal;HPM_P1;HPM_P2
2023/04/10 00:01:53;;;;;;;42.55;27.27;;;9.50;99.90;;;;;;5063706;28;20109;-44
2023/04/10 00:04:19;;;;;;;39.58;26.27;;;9.40;99.90;;;;;;5063524;28;20056;-45
2023/04/10 00:06:45;;;;;;;43.20;27.30;;;9.40;99.90;;;;;;5065750;28;20044;-49
2023/04/10 00:09:10;;;;;;;42.45;26.10;;;9.40;99.90;;;;;;5066246;28;20522;-47
2023/04/10 00:11:36;;;;;;;41.60;26.17;;;9.40;99.90;;;;;;5067524;28;20391;-46
2023/04/10 00:14:02;;;;;;;39.13;25.45;;;9.40;99.90;;;;;;5068295;28;20044;-59
2023/04/10 00:16:27;;;;;;;42.13;27.23;;;9.40;99.90;;;;;;5071432;28;20438;-49
2023/04/10 00:18:53;;;;;;;43.13;25.38;;;9.40;99.90;;;;;;5064904;28;20470;-49
2023/04/10 00:21:18;;;;;;;40.90;26.08;;;9.30;99.90;;;;;;5069291;28;20083;-47
2023/04/10 00:23:44;;;;;;;41.08;25.40;;;9.30;99.90;;;;;;5071962;28;20079;-45
2023/04/10 00:26:10;;;;;;;38.38;25.42;;;9.30;99.90;;;;;;5066117;28;20175;-47
2023/04/10 00:28:37;;;;;;;38.45;26.10;;;9.20;99.90;;;;;;5068952;28;20057;-48
2023/04/10 00:31:05;;;;;;;43.95;26.58;;;9.20;99.90;;;;;;5070045;28;20392;-49
2023/04/10 00:33:31;;;;;;;40.63;25.23;;;9.20;99.90;;;;;;5072509;28;20112;-48
2023/04/10 00:35:56;;;;;;;41.75;27.00;;;9.10;99.90;;;;;;5068459;28;20044;-50
2023/04/10 00:38:22;;;;;;;43.53;27.85;;;9.10;99.90;;;;;;5067371;28;20053;-46
2023/04/10 00:40:47;;;;;;;38.47;25.60;;;9.10;99.90;;;;;;5067242;28;20045;-44
2023/04/10 00:43:13;;;;;;;36.80;25.33;;;9.00;99.90;;;;;;5066143;28;20108;-47
2023/04/10 00:45:39;;;;;;;40.70;25.98;;;9.00;99.90;;;;;;5066802;28;20071;-49
2023/04/10 00:48:05;;;;;;;43.05;25.90;;;9.00;99.90;;;;;;5042059;28;20045;-47
2023/04/10 00:50:31;;;;;;;40.30;25.85;;;9.00;99.90;;;;;;5063181;28;20075;-44
2023/04/10 00:52:57;;;;;;;42.78;25.60;;;8.90;99.90;;;;;;5063904;28;20045;-46
2023/04/10 00:55:24;;;;;;;39.78;25.98;;;8.90;99.90;;;;;;5062981;28;20060;-46
2023/04/10 00:57:50;;;;;;;41.17;24.30;;;8.90;99.90;;;;;;5061822;28;20056;-47
2023/04/10 01:00:16;;;;;;;42.00;27.05;;;8.80;99.90;;;;;;5066267;28;20064;-49
2023/04/10 01:02:42;;;;;;;36.17;24.23;;;8.80;99.90;;;;;;5063166;28;20048;-47
2023/04/10 01:05:11;;;;;;;42.45;27.27;;;8.80;99.90;;;;;;5054961;28;20064;-45
2023/04/10 01:08:11;;;;;;;42.08;25.95;;;8.70;99.90;;;;;;5060071;28;20090;-45
2023/04/10 01:10:55;;;;;;;42.95;26.90;;;8.70;99.90;;;;;;5061691;28;20117;-47
2023/04/10 01:13:29;;;;;;;44.25;25.65;;;8.70;99.90;;;;;;5058705;28;20275;-48
2023/04/10 01:16:07;;;;;;;40.88;26.45;;;8.60;99.90;;;;;;5046078;28;20152;-48
2023/04/10 01:18:51;;;;;;;41.65;25.98;;;8.60;99.90;;;;;;5054365;28;20091;-47
2023/04/10 01:21:17;;;;;;;44.75;26.90;;;8.60;99.90;;;;;;5048345;28;20056;-44
2023/04/10 01:23:55;;;;;;;41.17;25.88;;;8.60;99.90;;;;;;5052663;28;20457;-45
2023/04/10 01:27:05;;;;;;;39.30;26.67;;;8.50;99.90;;;;;;5051173;28;21006;-44
2023/04/10 01:29:35;;;;;;;42.03;24.58;;;8.50;99.90;;;;;;5000647;28;20050;-59
2023/04/10 01:32:07;;;;;;;41.05;25.25;;;8.50;99.90;;;;;;5060232;28;20361;-47
2023/04/10 01:34:41;;;;;;;45.07;26.77;;;8.50;99.90;;;;;;5055743;28;20515;-45
2023/04/10 01:37:23;;;;;;;44.35;24.77;;;8.40;99.90;;;;;;5059750;28;20497;-48
2023/04/10 01:39:58;;;;;;;43.28;26.35;;;8.40;99.90;;;;;;5061954;28;20509;-47
2023/04/10 01:42:27;;;;;;;38.78;25.73;;;8.40;99.90;;;;;;5063318;28;20052;-48
2023/04/10 01:44:54;;;;;;;40.95;25.77;;;8.40;99.90;;;;;;5058293;28;20063;-46
2023/04/10 01:47:21;;;;;;;41.85;25.92;;;8.40;99.90;;;;;;5064327;28;20052;-48
2023/04/10 01:49:49;;;;;;;41.53;25.77;;;8.30;99.90;;;;;;5063131;28;20121;-48
2023/04/10 01:52:16;;;;;;;41.42;26.40;;;8.30;99.90;;;;;;5061692;28;20056;-47
2023/04/10 01:54:44;;;;;;;39.70;24.80;;;8.20;99.90;;;;;;5062412;28;20048;-47
2023/04/10 01:57:12;;;;;;;38.47;24.00;;;8.30;99.90;;;;;;5058680;28;20406;-49
2023/04/10 01:59:38;;;;;;;40.55;25.45;;;8.20;99.90;;;;;;5056927;28;20049;-46
2023/04/10 02:02:06;;;;;;;46.13;25.88;;;8.20;99.90;;;;;;5059469;28;20048;-45
2023/04/10 02:04:32;;;;;;;41.08;24.27;;;8.20;99.90;;;;;;5062534;28;20108;-46
2023/04/10 02:07:15;;;;;;;40.28;24.15;;;8.20;99.90;;;;;;5058641;28;20053;-43
2023/04/10 02:09:48;;;;;;;40.08;23.13;;;8.10;99.90;;;;;;5061141;28;20093;-44
2023/04/10 02:12:22;;;;;;;35.42;22.95;;;8.10;99.90;;;;;;5067373;28;20044;-48
2023/04/10 02:14:49;;;;;;;39.17;22.92;;;8.20;99.90;;;;;;5065444;28;20080;-47
2023/04/10 02:17:19;;;;;;;35.08;22.10;;;8.10;99.90;;;;;;5056345;28;20067;-48
2023/04/10 02:19:47;;;;;;;32.70;21.15;;;8.10;99.90;;;;;;5063963;28;20072;-45
2023/04/10 02:22:14;;;;;;;36.00;22.10;;;8.10;99.90;;;;;;5065170;28;20182;-48
2023/04/10 02:24:40;;;;;;;33.78;21.55;;;8.10;99.90;;;;;;5059829;28;20110;-46
2023/04/10 02:27:06;;;;;;;31.60;19.15;;;8.10;99.90;;;;;;5063227;28;20048;-47
2023/04/10 02:29:32;;;;;;;31.52;20.05;;;8.10;99.90;;;;;;5066254;28;20048;-46
2023/04/10 02:31:59;;;;;;;30.55;19.17;;;8.10;99.90;;;;;;5062244;28;20467;-49
2023/04/10 02:34:24;;;;;;;27.25;18.35;;;8.10;99.90;;;;;;5061813;28;20486;-47
2023/04/10 02:36:51;;;;;;;33.20;18.90;;;8.10;99.90;;;;;;5060200;28;20055;-46
2023/04/10 02:39:16;;;;;;;29.20;17.77;;;8.00;99.90;;;;;;5061693;28;20055;-48
2023/04/10 02:41:42;;;;;;;29.33;18.17;;;8.10;99.90;;;;;;5058198;28;20049;-46
2023/04/10 02:44:07;;;;;;;26.67;15.40;;;8.10;99.90;;;;;;5061322;28;20056;-46
2023/04/10 02:46:33;;;;;;;28.40;17.15;;;8.00;99.90;;;;;;5058075;28;20488;-45
2023/04/10 02:48:59;;;;;;;29.48;17.13;;;8.00;99.90;;;;;;5056365;28;20052;-47
2023/04/10 02:51:25;;;;;;;28.45;16.48;;;8.00;99.90;;;;;;5061752;28;20076;-47
2023/04/10 02:53:51;;;;;;;29.75;16.98;;;8.00;99.90;;;;;;5058915;28;20054;-47
2023/04/10 02:56:17;;;;;;;25.42;14.90;;;8.00;99.90;;;;;;5059457;28;20422;-46
2023/04/10 02:58:45;;;;;;;23.13;16.02;;;8.00;99.90;;;;;;5055078;28;20052;-48
2023/04/10 03:01:11;;;;;;;24.38;15.70;;;8.00;99.90;;;;;;5059003;28;20045;-47
2023/04/10 03:03:37;;;;;;;26.48;15.25;;;8.00;99.90;;;;;;5059543;28;20048;-48
2023/04/10 03:06:03;;;;;;;27.00;16.35;;;8.00;99.90;;;;;;5064345;28;20056;-47
2023/04/10 03:08:29;;;;;;;24.75;15.27;;;8.00;99.90;;;;;;5064499;28;20060;-51
2023/04/10 03:10:55;;;;;;;24.92;14.98;;;8.00;99.90;;;;;;5056305;28;20936;-49
2023/04/10 03:13:22;;;;;;;25.27;14.13;;;7.90;99.90;;;;;;5063454;28;20805;-44
2023/04/10 03:15:48;;;;;;;23.73;14.50;;;7.90;99.90;;;;;;5063794;28;20076;-47
2023/04/10 03:18:13;;;;;;;22.52;14.13;;;8.00;99.90;;;;;;5040775;28;20092;-49
2023/04/10 03:20:39;;;;;;;23.75;13.57;;;7.90;99.90;;;;;;5053999;28;20088;-45
2023/04/10 03:23:06;;;;;;;24.23;14.25;;;7.90;99.90;;;;;;5059524;28;20322;-49
2023/04/10 03:25:34;;;;;;;22.67;14.23;;;7.90;99.90;;;;;;5065826;28;20045;-50
2023/04/10 03:28:00;;;;;;;21.17;13.25;;;8.00;99.90;;;;;;5063744;28;20052;-45
2023/04/10 03:30:26;;;;;;;22.85;14.43;;;8.00;99.90;;;;;;5067402;28;20106;-49
2023/04/10 03:32:51;;;;;;;23.30;13.50;;;8.00;99.90;;;;;;5065290;28;20044;-49
2023/04/10 03:35:17;;;;;;;22.92;13.98;;;8.00;99.90;;;;;;5068705;28;20061;-44
2023/04/10 03:37:43;;;;;;;19.65;12.77;;;8.00;99.90;;;;;;5060522;28;20536;-48
2023/04/10 03:40:09;;;;;;;19.13;12.55;;;8.00;99.90;;;;;;5066472;28;20060;-46
2023/04/10 03:42:35;;;;;;;22.98;13.32;;;8.10;99.90;;;;;;5066210;28;20048;-46
2023/04/10 03:45:05;;;;;;;21.48;13.20;;;8.10;99.90;;;;;;5064407;28;20040;-44
2023/04/10 03:47:31;;;;;;;19.80;12.30;;;8.10;99.90;;;;;;5066761;28;20075;-51
2023/04/10 03:50:00;;;;;;;25.73;14.02;;;8.00;99.90;;;;;;5063692;28;20040;-49
2023/04/10 03:52:26;;;;;;;21.17;12.88;;;8.00;99.90;;;;;;5065878;28;20041;-48
2023/04/10 03:54:53;;;;;;;19.77;11.68;;;8.00;99.90;;;;;;5064747;28;20045;-49
2023/04/10 03:57:20;;;;;;;23.67;13.13;;;8.00;99.90;;;;;;5066683;28;20113;-47
2023/04/10 03:59:46;;;;;;;19.33;11.90;;;8.00;99.90;;;;;;5060434;28;20548;-48
2023/04/10 04:02:12;;;;;;;19.20;12.05;;;7.90;99.90;;;;;;5064466;28;20136;-45
2023/04/10 04:04:38;;;;;;;22.40;12.25;;;7.90;99.90;;;;;;5065799;28;20139;-46
2023/04/10 04:07:04;;;;;;;23.25;12.48;;;7.90;99.90;;;;;;5064281;28;20143;-46
2023/04/10 04:09:29;;;;;;;26.40;12.43;;;7.90;99.90;;;;;;5063777;28;20135;-48
2023/04/10 04:11:56;;;;;;;22.58;12.27;;;7.90;99.90;;;;;;5061789;28;20055;-49
2023/04/10 04:14:22;;;;;;;22.73;12.05;;;7.90;99.90;;;;;;5067636;28;20510;-48
2023/04/10 04:16:48;;;;;;;18.65;10.75;;;7.90;99.90;;;;;;5067313;28;20394;-47
2023/04/10 04:19:14;;;;;;;18.38;11.38;;;7.90;99.90;;;;;;5051500;28;20072;-47
2023/04/10 04:21:40;;;;;;;16.10;9.95;;;7.90;99.90;;;;;;5067014;28;20722;-47
2023/04/10 04:24:06;;;;;;;18.77;10.90;;;7.90;99.90;;;;;;5064377;28;20048;-48
2023/04/10 04:26:32;;;;;;;17.30;10.25;;;8.00;99.90;;;;;;5061499;28;20048;-47
2023/04/10 04:28:57;;;;;;;17.27;10.55;;;8.00;99.90;;;;;;5064041;28;20402;-48
2023/04/10 04:31:23;;;;;;;18.13;11.02;;;7.90;99.90;;;;;;5069608;28;20072;-48
2023/04/10 04:33:49;;;;;;;16.02;9.98;;;8.00;99.90;;;;;;5062899;28;20102;-44
2023/04/10 04:36:15;;;;;;;16.45;9.68;;;8.00;99.90;;;;;;5069207;28;20452;-47
2023/04/10 04:38:42;;;;;;;16.25;9.82;;;8.00;99.90;;;;;;5051839;28;20732;-43
2023/04/10 04:41:07;;;;;;;18.27;10.25;;;8.00;99.90;;;;;;5058139;28;20048;-48
2023/04/10 04:43:33;;;;;;;17.38;9.95;;;8.00;99.90;;;;;;5063980;28;20426;-45
2023/04/10 04:45:58;;;;;;;20.40;10.68;;;7.90;99.90;;;;;;5065289;28;20087;-45
2023/04/10 04:48:24;;;;;;;18.85;10.27;;;7.90;99.90;;;;;;5059019;28;20460;-47
2023/04/10 04:50:50;;;;;;;19.90;10.55;;;7.90;99.90;;;;;;5062393;28;20056;-38
2023/04/10 04:53:15;;;;;;;17.15;10.27;;;7.90;99.90;;;;;;5064874;28;20052;-49
2023/04/10 04:55:41;;;;;;;15.18;9.45;;;7.90;99.90;;;;;;5068341;28;20048;-48
2023/04/10 04:58:07;;;;;;;14.50;8.27;;;7.90;99.90;;;;;;5063869;28;20048;-43
2023/04/10 05:00:32;;;;;;;15.25;9.38;;;7.90;99.90;;;;;;5062477;28;20074;-47
2023/04/10 05:02:58;;;;;;;19.70;9.85;;;7.90;99.90;;;;;;5065098;28;20048;-44
2023/04/10 05:05:24;;;;;;;15.52;9.18;;;7.90;99.90;;;;;;5066861;28;20053;-46
2023/04/10 05:07:50;;;;;;;16.55;9.75;;;7.90;99.90;;;;;;5063375;28;20048;-46
2023/04/10 05:10:15;;;;;;;15.82;9.23;;;7.90;99.90;;;;;;5052794;28;20064;-49
2023/04/10 05:12:42;;;;;;;15.98;9.00;;;8.00;99.90;;;;;;5060603;28;20414;-46
2023/04/10 05:15:08;;;;;;;16.95;9.23;;;7.90;99.90;;;;;;5054337;28;20060;-45
2023/04/10 05:17:34;;;;;;;16.70;8.90;;;7.90;99.90;;;;;;5064956;28;20056;-45
2023/04/10 05:20:00;;;;;;;14.65;8.73;;;8.00;99.90;;;;;;5056847;28;20056;-43
2023/04/10 05:22:26;;;;;;;17.10;9.25;;;7.90;99.90;;;;;;5040978;28;20090;-45
2023/04/10 05:24:53;;;;;;;16.23;9.77;;;7.90;99.90;;;;;;5062255;28;20040;-48
2023/04/10 05:27:20;;;;;;;14.98;8.65;;;7.90;99.90;;;;;;5063371;28;20067;-45
2023/04/10 05:29:45;;;;;;;17.27;8.93;;;7.90;99.90;;;;;;5060895;28;20139;-45
2023/04/10 05:32:11;;;;;;;17.08;8.70;;;7.90;99.90;;;;;;5058950;28;20132;-48
2023/04/10 05:34:37;;;;;;;15.82;9.60;;;7.90;99.90;;;;;;5061084;28;20044;-46
2023/04/10 05:37:02;;;;;;;16.95;8.82;;;7.90;99.90;;;;;;5065417;28;20048;-49
2023/04/10 05:39:28;;;;;;;16.20;8.70;;;8.00;99.90;;;;;;5061375;28;20481;-46
2023/04/10 05:41:53;;;;;;;14.82;9.07;;;8.00;99.90;;;;;;5065562;28;20056;-46
2023/04/10 05:44:19;;;;;;;18.60;9.40;;;8.00;99.90;;;;;;5064654;28;20056;-48
2023/04/10 05:46:45;;;;;;;15.95;9.05;;;8.00;99.90;;;;;;5064347;28;20118;-46
2023/04/10 05:49:10;;;;;;;15.55;8.38;;;8.00;99.90;;;;;;5059984;28;20102;-47
2023/04/10 05:51:36;;;;;;;16.52;8.60;;;8.10;99.90;;;;;;5061355;28;20531;-44
2023/04/10 05:54:01;;;;;;;18.30;9.85;;;8.10;99.90;;;;;;5042168;28;20098;-47
2023/04/10 05:56:27;;;;;;;17.73;9.38;;;8.10;99.90;;;;;;5062421;28;20500;-49
2023/04/10 05:58:53;;;;;;;18.13;9.48;;;8.20;99.90;;;;;;5061960;28;20050;-46
2023/04/10 06:01:18;;;;;;;15.98;9.20;;;8.20;99.90;;;;;;5056670;28;20084;-45
2023/04/10 06:03:44;;;;;;;16.33;9.35;;;8.20;99.90;;;;;;5057704;28;20641;-46
2023/04/10 06:06:10;;;;;;;18.92;9.15;;;8.20;99.90;;;;;;5058680;28;20429;-46
2023/04/10 06:08:35;;;;;;;14.70;8.48;;;8.30;99.90;;;;;;5063599;28;20040;-45
2023/04/10 06:11:01;;;;;;;14.43;8.10;;;8.30;99.90;;;;;;5065920;28;20246;-43
2023/04/10 06:13:27;;;;;;;18.15;9.68;;;8.40;99.90;;;;;;5048164;28;20051;-44
2023/04/10 06:15:52;;;;;;;16.38;8.65;;;8.50;99.90;;;;;;5063127;28;20044;-47
2023/04/10 06:18:18;;;;;;;13.52;7.38;;;8.50;99.90;;;;;;5066715;28;20055;-49
2023/04/10 06:20:44;;;;;;;14.88;8.02;;;8.60;99.90;;;;;;5066089;28;20130;-45
2023/04/10 06:23:11;;;;;;;14.40;8.30;;;8.60;99.90;;;;;;5062790;28;20151;-45
2023/04/10 06:25:37;;;;;;;15.80;8.65;;;8.60;99.90;;;;;;5056954;28;20117;-42
2023/04/10 06:28:02;;;;;;;15.35;8.43;;;8.70;99.90;;;;;;5057973;28;20048;-43
2023/04/10 06:30:29;;;;;;;13.18;6.70;;;8.70;99.90;;;;;;5058243;28;21899;-42
2023/04/10 06:32:55;;;;;;;14.93;8.65;;;8.80;99.90;;;;;;5057163;28;20068;-41
2023/04/10 06:35:21;;;;;;;13.90;8.30;;;8.90;99.90;;;;;;5063512;28;20127;-42
2023/04/10 06:37:47;;;;;;;14.05;7.93;;;8.90;99.90;;;;;;5066621;28;20555;-47
2023/04/10 06:40:14;;;;;;;13.90;7.65;;;8.90;99.90;;;;;;5057139;28;20052;-44
2023/04/10 06:42:40;;;;;;;15.10;8.45;;;8.90;99.90;;;;;;5062934;28;20379;-43
2023/04/10 06:45:06;;;;;;;14.82;8.77;;;9.00;99.90;;;;;;5064403;28;20067;-46
2023/04/10 06:47:32;;;;;;;13.25;7.93;;;9.10;99.90;;;;;;5064592;28;20049;-41
2023/04/10 06:49:58;;;;;;;13.77;7.93;;;9.10;99.90;;;;;;5061055;28;20058;-46
2023/04/10 06:52:24;;;;;;;13.70;8.40;;;9.20;99.90;;;;;;5043223;28;20102;-43
2023/04/10 06:54:49;;;;;;;13.45;8.05;;;9.20;99.90;;;;;;5065724;28;20060;-42
2023/04/10 06:57:15;;;;;;;12.38;7.15;;;9.30;99.90;;;;;;5062741;28;20056;-44
2023/04/10 06:59:41;;;;;;;13.63;8.13;;;9.40;99.90;;;;;;5067703;28;20120;-43
2023/04/10 07:02:07;;;;;;;17.00;7.95;;;9.40;99.90;;;;;;5065116;28;20095;-41
2023/04/10 07:04:33;;;;;;;14.60;8.80;;;9.40;99.90;;;;;;5068014;28;20051;-36
2023/04/10 07:06:58;;;;;;;15.73;8.27;;;9.50;99.90;;;;;;5048955;28;20059;-36
2023/04/10 07:09:29;;;;;;;13.38;7.80;;;9.60;99.90;;;;;;5065749;28;20052;-46
2023/04/10 07:11:55;;;;;;;13.50;8.32;;;9.70;99.90;;;;;;5065097;28;20063;-36
2023/04/10 07:14:21;;;;;;;14.77;7.53;;;9.80;99.90;;;;;;5066037;28;20490;-36
2023/04/10 07:16:48;;;;;;;14.85;8.43;;;9.90;99.90;;;;;;5066037;28;20040;-36
2023/04/10 07:19:14;;;;;;;12.88;7.07;;;10.00;99.90;;;;;;5064657;28;20041;-36
2023/04/10 07:21:40;;;;;;;13.95;8.07;;;10.10;99.90;;;;;;5062995;28;20489;-36
2023/04/10 07:24:05;;;;;;;13.38;7.20;;;10.20;99.90;;;;;;5065325;28;20484;-36
2023/04/10 07:26:31;;;;;;;14.15;7.85;;;10.30;99.90;;;;;;5062788;28;20049;-36
2023/04/10 07:28:57;;;;;;;13.60;7.68;;;10.40;99.90;;;;;;5068146;28;20054;-37
2023/04/10 07:31:22;;;;;;;12.88;7.38;;;10.50;99.90;;;;;;5063768;28;20265;-36
2023/04/10 07:33:48;;;;;;;14.50;7.47;;;10.60;99.90;;;;;;5064899;28;20048;-39
2023/04/10 07:36:14;;;;;;;11.57;7.28;;;10.70;99.90;;;;;;5061669;28;20057;-38
2023/04/10 07:38:41;;;;;;;14.02;7.35;;;10.80;99.90;;;;;;5066451;28;20064;-37
2023/04/10 07:41:06;;;;;;;13.65;7.15;;;10.90;99.90;;;;;;5062712;28;20056;-38
2023/04/10 07:43:32;;;;;;;12.32;7.10;;;11.10;99.90;;;;;;5061196;28;20063;-37
2023/04/10 07:45:58;;;;;;;19.60;7.18;;;11.10;99.90;;;;;;5066723;28;20080;-37
2023/04/10 07:48:23;;;;;;;11.65;6.78;;;11.20;99.90;;;;;;5063846;28;20417;-38
2023/04/10 07:50:49;;;;;;;12.57;6.85;;;11.30;99.90;;;;;;5065841;28;20059;-38
2023/04/10 07:53:15;;;;;;;11.95;6.35;;;11.40;99.90;;;;;;5064535;28;20060;-38
2023/04/10 07:55:47;;;;;;;11.85;6.90;;;11.40;99.90;;;;;;5065398;28;20055;-38
2023/04/10 07:58:13;;;;;;;11.98;6.63;;;11.40;99.90;;;;;;5064779;28;20064;-37
2023/04/10 08:00:39;;;;;;;11.35;6.60;;;11.50;99.90;;;;;;5061818;28;20057;-38
2023/04/10 08:03:05;;;;;;;10.27;6.55;;;11.50;99.90;;;;;;5061666;28;20060;-38
2023/04/10 08:05:30;;;;;;;15.00;6.88;;;11.50;99.90;;;;;;5065332;28;20399;-37
2023/04/10 08:07:56;;;;;;;9.95;6.25;;;11.60;99.90;;;;;;5067592;28;20083;-38
2023/04/10 08:10:22;;;;;;;11.45;6.43;;;11.70;99.90;;;;;;5066226;28;20050;-37
2023/04/10 08:12:47;;;;;;;13.65;6.47;;;11.80;99.90;;;;;;5066539;28;20087;-38
2023/04/10 08:15:13;;;;;;;13.13;7.22;;;11.80;99.90;;;;;;5047124;28;20097;-38
2023/04/10 08:17:39;;;;;;;10.95;6.57;;;11.90;99.90;;;;;;5062923;28;20053;-37
2023/04/10 08:20:05;;;;;;;10.90;6.82;;;12.00;99.90;;;;;;5058908;28;20505;-37
2023/04/10 08:22:31;;;;;;;12.57;7.05;;;12.10;99.90;;;;;;5063682;28;20052;-38
2023/04/10 08:24:57;;;;;;;10.57;6.45;;;12.10;99.90;;;;;;5066475;28;20460;-38
2023/04/10 08:27:23;;;;;;;10.73;7.15;;;12.20;99.90;;;;;;5061299;28;20079;-38
2023/04/10 08:29:48;;;;;;;12.77;7.45;;;12.30;99.90;;;;;;5062612;28;20455;-38
2023/04/10 08:32:14;;;;;;;11.93;6.53;;;12.40;99.90;;;;;;5050845;28;20579;-38
2023/04/10 08:34:40;;;;;;;11.35;6.53;;;12.50;99.90;;;;;;5057931;28;20052;-38
2023/04/10 08:37:08;;;;;;;9.32;5.70;;;12.50;99.90;;;;;;5061539;28;20044;-39
2023/04/10 08:39:35;;;;;;;11.52;6.78;;;12.60;99.90;;;;;;5063419;28;20051;-38
2023/04/10 08:42:02;;;;;;;11.52;6.70;;;12.70;99.90;;;;;;5063957;28;20061;-39
2023/04/10 08:44:28;;;;;;;9.75;6.10;;;12.80;99.90;;;;;;5059878;28;20102;-45
2023/04/10 08:46:57;;;;;;;9.80;5.63;;;12.90;99.90;;;;;;5047216;28;20110;-37
2023/04/10 08:49:30;;;;;;;9.82;6.00;;;13.00;99.90;;;;;;5059237;28;20048;-37
2023/04/10 08:51:58;;;;;;;12.18;5.90;;;13.10;99.90;;;;;;5056691;28;20061;-36
2023/04/10 08:54:33;;;;;;;10.73;6.25;;;13.20;99.90;;;;;;5057801;28;20054;-40
2023/04/10 08:57:00;;;;;;;10.90;6.38;;;13.30;99.90;;;;;;5058882;28;20048;-37
2023/04/10 08:59:32;;;;;;;9.75;5.80;;;13.40;99.90;;;;;;5058480;28;20642;-39
2023/04/10 09:01:58;;;;;;;11.25;5.00;;;13.50;99.90;;;;;;5058719;28;20314;-37
2023/04/10 09:04:25;;;;;;;9.18;6.03;;;13.60;99.90;;;;;;5058913;28;20102;-38
2023/04/10 09:06:52;;;;;;;12.57;6.05;;;13.60;99.90;;;;;;5056342;28;20122;-39
2023/04/10 09:09:18;;;;;;;9.05;5.32;;;13.70;99.90;;;;;;5060104;28;20395;-37
2023/04/10 09:11:59;;;;;;;8.68;5.22;;;13.70;99.90;;;;;;5054871;28;20143;-39
2023/04/10 09:14:29;;;;;;;7.78;4.88;;;13.70;99.90;;;;;;5052261;28;20053;-37
2023/04/10 09:17:16;;;;;;;8.55;5.15;;;13.70;99.90;;;;;;5059432;28;20044;-37
2023/04/10 09:19:44;;;;;;;8.55;5.10;;;13.80;99.90;;;;;;5058448;28;20052;-37
2023/04/10 09:22:10;;;;;;;8.95;5.45;;;13.80;99.90;;;;;;5059306;28;20422;-37
2023/04/10 09:24:41;;;;;;;7.85;4.80;;;13.80;99.90;;;;;;5058417;28;20048;-37
2023/04/10 09:27:07;;;;;;;8.65;5.18;;;13.80;99.90;;;;;;5061869;28;20056;-37
2023/04/10 09:29:47;;;;;;;8.05;4.80;;;13.80;99.90;;;;;;5055961;28;20071;-37
2023/04/10 09:32:33;;;;;;;8.77;5.22;;;13.90;99.90;;;;;;5060314;28;20512;-37
2023/04/10 09:34:58;;;;;;;8.27;4.78;;;13.80;99.90;;;;;;5059930;28;20071;-38
2023/04/10 09:37:31;;;;;;;8.60;5.00;;;13.90;99.90;;;;;;5067528;28;20061;-38
2023/04/10 09:39:56;;;;;;;;;;;14.10;99.90;;;;;;5061019;28;20056;-37
2023/04/10 09:42:30;;;;;;;6.38;3.85;;;14.10;99.90;;;;;;5057798;28;20297;-37
2023/04/10 09:44:55;;;;;;;7.47;4.38;;;14.30;99.90;;;;;;5055789;28;20063;-37
2023/04/10 09:47:21;;;;;;;7.45;4.75;;;14.30;99.90;;;;;;5048644;28;20517;-36
2023/04/10 09:49:55;;;;;;;7.38;4.50;;;14.30;99.90;;;;;;5058585;28;20052;-38
2023/04/10 09:52:26;;;;;;;8.63;4.45;;;14.30;99.90;;;;;;5046068;28;20521;-38
2023/04/10 09:54:57;;;;;;;8.45;4.30;;;14.40;99.90;;;;;;5044888;28;20104;-38
2023/04/10 09:57:25;;;;;;;7.72;4.30;;;14.40;99.90;;;;;;5050740;28;20133;-37
2023/04/10 09:59:55;;;;;;;7.68;4.35;;;14.40;99.90;;;;;;5053839;28;20049;-38
2023/04/10 10:02:23;;;;;;;7.18;4.65;;;14.40;99.90;;;;;;5051881;28;20048;-38
2023/04/10 10:04:49;;;;;;;8.77;4.88;;;14.50;99.90;;;;;;5058754;28;20044;-37
2023/04/10 10:07:16;;;;;;;6.60;3.92;;;14.50;99.90;;;;;;5053968;28;20063;-37
2023/04/10 10:09:43;;;;;;;8.27;4.68;;;14.50;99.90;;;;;;5059798;28;20040;-38
2023/04/10 10:12:11;;;;;;;8.07;4.55;;;14.40;99.90;;;;;;5053322;28;20055;-37
2023/04/10 10:14:59;;;;;;;7.10;4.35;;;14.30;99.90;;;;;;5053947;28;20134;-37
2023/04/10 10:17:30;;;;;;;7.53;4.53;;;14.40;99.90;;;;;;5049045;28;20501;-37
2023/04/10 10:20:04;;;;;;;7.10;4.43;;;14.40;99.90;;;;;;5058618;28;20098;-38
2023/04/10 10:22:31;;;;;;;8.52;4.13;;;14.50;99.90;;;;;;5059931;28;20047;-38
2023/04/10 10:25:01;;;;;;;6.45;4.15;;;14.50;99.90;;;;;;5035895;28;20056;-38
2023/04/10 10:27:31;;;;;;;9.88;4.50;;;14.50;99.90;;;;;;5042941;28;20486;-37
2023/04/10 10:29:59;;;;;;;7.60;4.35;;;14.50;99.90;;;;;;5058535;28;20063;-37
2023/04/10 10:32:26;;;;;;;6.95;4.10;;;14.40;99.90;;;;;;5053901;28;20045;-37
2023/04/10 10:34:53;;;;;;;7.32;4.53;;;14.50;99.90;;;;;;5055507;28;20049;-37
2023/04/10 10:37:22;;;;;;;6.38;4.13;;;14.50;99.90;;;;;;5056539;28;20486;-37
2023/04/10 10:40:09;;;;;;;9.07;4.68;;;14.60;99.90;;;;;;5054466;28;20568;-38
2023/04/10 10:43:00;;;;;;;7.22;4.13;;;14.70;99.90;;;;;;5041266;28;20066;-37
2023/04/10 10:45:53;;;;;;;7.25;4.57;;;14.80;99.90;;;;;;5055491;28;20041;-37
2023/04/10 10:48:18;;;;;;;8.48;4.05;;;15.00;99.90;;;;;;5059709;28;20044;-37
2023/04/10 10:50:52;;;;;;;6.35;3.75;;;15.00;99.90;;;;;;5061679;28;20059;-37
2023/04/10 10:53:44;;;;;;;6.85;4.15;;;14.90;99.90;;;;;;5057932;28;20554;-37
2023/04/10 10:56:19;;;;;;;7.40;4.43;;;15.00;99.90;;;;;;5050744;28;20045;-37
2023/04/10 10:58:46;;;;;;;7.05;4.15;;;15.00;99.90;;;;;;5061486;28;20290;-37
2023/04/10 11:01:12;;;;;;;8.57;4.25;;;15.00;99.90;;;;;;5055329;28;20525;-38
2023/04/10 11:03:38;;;;;;;6.60;3.50;;;15.00;99.90;;;;;;5052745;28;20049;-38
2023/04/10 11:06:08;;;;;;;6.60;4.30;;;15.00;99.90;;;;;;5059947;28;20122;-38
2023/04/10 11:08:47;;;;;;;7.50;4.07;;;14.90;99.90;;;;;;5052233;28;20426;-38
2023/04/10 11:11:20;;;;;;;7.65;4.30;;;14.90;99.90;;;;;;5058241;28;20056;-38
2023/04/10 11:13:51;;;;;;;9.02;4.60;;;14.90;99.90;;;;;;5064906;28;20399;-38
2023/04/10 11:16:19;;;;;;;6.68;4.20;;;14.90;99.90;;;;;;5055315;28;20056;-37
2023/04/10 11:18:47;;;;;;;7.28;4.20;;;14.90;99.90;;;;;;5057244;28;20568;-37
2023/04/10 11:21:17;;;;;;;7.93;4.85;;;15.00;99.90;;;;;;5055773;28;20088;-38
2023/04/10 11:23:48;;;;;;;7.35;4.70;;;15.00;99.90;;;;;;5058872;28;22334;-37
2023/04/10 11:26:38;;;;;;;6.45;3.80;;;15.10;99.90;;;;;;5062074;28;20495;-37
2023/04/10 11:29:18;;;;;;;7.18;4.05;;;15.10;99.90;;;;;;5061407;28;20414;-37
2023/04/10 11:31:45;;;;;;;7.90;4.10;;;15.20;99.90;;;;;;5066644;28;20545;-37
2023/04/10 11:34:11;;;;;;;5.55;3.72;;;15.20;99.90;;;;;;5058791;28;20041;-37
2023/04/10 11:36:39;;;;;;;6.63;4.70;;;15.20;99.90;;;;;;5054058;28;20060;-37
2023/04/10 11:39:08;;;;;;;7.43;4.18;;;15.30;99.90;;;;;;5052768;28;20052;-38
2023/04/10 11:41:36;;;;;;;6.53;3.95;;;15.40;99.90;;;;;;5059293;28;20051;-37
2023/04/10 11:44:05;;;;;;;6.45;3.78;;;15.50;99.90;;;;;;5063396;28;20048;-38
2023/04/10 11:46:34;;;;;;;6.82;3.42;;;15.50;99.90;;;;;;5060787;28;20045;-38
2023/04/10 11:49:02;;;;;;;5.50;4.00;;;15.60;99.90;;;;;;5062183;28;20048;-38
2023/04/10 11:51:29;;;;;;;6.40;3.80;;;15.70;99.90;;;;;;5064478;28;20325;-38
2023/04/10 11:54:05;;;;;;;8.32;3.85;;;15.80;99.90;;;;;;5055525;28;20486;-38
2023/04/10 11:56:30;;;;;;;6.28;3.25;;;15.90;99.90;;;;;;5068754;28;20325;-38
2023/04/10 11:58:56;;;;;;;5.28;2.92;;;16.00;99.90;;;;;;5055152;28;20075;-38
2023/04/10 12:01:22;;;;;;;6.68;3.75;;;16.10;99.90;;;;;;5061454;28;20128;-39
2023/04/10 12:03:48;;;;;;;5.97;3.65;;;16.30;99.90;;;;;;5063021;28;20056;-38
2023/04/10 12:06:15;;;;;;;7.78;4.10;;;16.40;99.90;;;;;;5061613;28;20372;-38
2023/04/10 12:08:46;;;;;;;6.68;4.05;;;16.40;99.90;;;;;;5060780;28;20555;-38
2023/04/10 12:11:13;;;;;;;6.83;3.33;;;16.40;99.90;;;;;;5066199;28;20472;-38
2023/04/10 12:13:39;;;;;;;7.05;3.88;;;16.20;99.90;;;;;;5059960;28;20303;-38
2023/04/10 12:16:08;;;;;;;7.85;3.58;;;16.10;99.90;;;;;;5061419;28;20545;-38
2023/04/10 12:18:35;;;;;;;6.97;3.05;;;16.00;99.90;;;;;;5064490;28;20063;-40
2023/04/10 12:21:01;;;;;;;7.45;3.90;;;16.00;99.90;;;;;;5064786;28;20528;-38
2023/04/10 12:23:28;;;;;;;6.00;3.40;;;16.00;99.90;;;;;;5066308;28;20041;-38
2023/04/10 12:26:08;;;;;;;5.93;3.35;;;16.00;99.90;;;;;;5061814;28;20037;-38
2023/04/10 12:28:36;;;;;;;6.28;2.95;;;15.90;99.90;;;;;;5069413;28;20469;-47
2023/04/10 12:31:03;;;;;;;5.93;4.03;;;15.80;99.90;;;;;;5057186;28;20483;-38
2023/04/10 12:33:28;;;;;;;6.65;3.80;;;15.70;99.90;;;;;;5057455;28;20113;-38
2023/04/10 12:35:55;;;;;;;6.35;3.55;;;15.70;99.90;;;;;;5053747;28;20683;-37
2023/04/10 12:38:38;;;;;;;5.07;3.33;;;15.70;99.90;;;;;;5065165;28;20063;-37
2023/04/10 12:41:05;;;;;;;7.63;3.15;;;15.60;99.90;;;;;;5054878;28;20440;-37
2023/04/10 12:43:38;;;;;;;6.80;2.95;;;15.60;99.90;;;;;;5060470;28;20559;-39
2023/04/10 12:46:05;;;;;;;7.30;3.50;;;15.70;99.90;;;;;;5051194;28;20044;-39
2023/04/10 12:48:31;;;;;;;6.25;3.58;;;15.70;99.90;;;;;;5052360;28;20324;-39